Nearby METAR Reports

 

KBAX - Bad Axe, Michigan, USA
Distance from station: ESE 22mi, 35km
Updated: Sat, 24-Jul-2021 6:35am EDT
Mostly cloudy
Mostly cloudy
 Wind from S
Wind: S 10 mph , 17 km/h
Temperature: 64°F , 18°C
Dew Point: 63°F , 17°C
Humidity: 94%
Barometer: 29.94 inHg , 1013.9 hPa
Clouds: Mostly cloudy
Visibility: 10 miles , 16 km
Cloud details: Partly cloudy 5000 ft
Mostly cloudy 8000 ft
2021/07/24 10:35 KBAX 241035Z AUTO 17009KT 10SM SCT050 BKN080 18/17 A2994 RMK AO2 T01830165
KFNT - Flint, Michigan, USA
Distance from station: SSW 68mi, 109km
Updated: Sat, 24-Jul-2021 5:53am EDT
Overcast
Overcast
 Wind from S
Wind: S 9 mph , 15 km/h
Temperature: 70°F , 21°C
Dew Point: 66°F , 19°C
Humidity: 88%
Barometer: 29.96 inHg , 1014.6 hPa
Clouds: Overcast
Visibility: 10 miles , 16 km
Cloud details: Few Clouds 3500 ft
Few Clouds 5500 ft
Overcast 9000 ft
2021/07/24 09:53 KFNT 240953Z 18008KT 10SM FEW035 FEW055 OVC090 21/19 A2996 RMK AO2 SLP143 T02110194
KMBS - Saginaw, Michigan, USA
Distance from station: SW 44mi, 70km
Updated: Sat, 24-Jul-2021 6:07am EDT
Light rain, Mist, Overcast
Light rain, Mist, Overcast
 Wind from SSW
Wind: SSW 5 mph , 7 km/h
Temperature: 70°F , 21°C
Dew Point: 68°F , 20°C
Humidity: 94%
Barometer: 29.95 inHg , 1014.2 hPa
Summary: Light rain, Mist
Clouds: Overcast
Visibility: 2 1/2 miles , 4 km
Cloud details: Few Clouds 900 ft
Mostly cloudy 5000 ft
Overcast 11000 ft
2021/07/24 10:07 KMBS 241007Z 21004KT 2 1/2SM -RA BR FEW009 BKN050 OVC110 21/20 A2995 RMK AO2 P0002 T02110200
 
KDTW - Detroit/Wayne, Michigan, USA
Distance from station: SSE 117mi, 188km
Updated: Sat, 24-Jul-2021 5:53am EDT
Mist, Overcast
Mist, Overcast
 Wind from S
Wind: S 9 mph , 15 km/h
Temperature: 70°F , 21°C
Dew Point: 66°F , 19°C
Humidity: 88%
Barometer: 30.00 inHg , 1015.9 hPa
Summary: Mist
Clouds: Overcast
Visibility: 5 miles , 8 km
Cloud details: Partly cloudy 6000 ft
Overcast 9000 ft
2021/07/24 09:53 KDTW 240953Z 19008KT 5SM BR SCT060 OVC090 21/19 A3000 RMK AO2 SLP155 T02110194
KP58 - Port Hope, Michigan, USA
Distance from station: ENE 30mi, 48km
Updated: Sat, 24-Jul-2021 5:55am EDT

 Wind from SSE
Wind: SSE 8 mph , 13 km/h
Temperature: 68°F , 20°C
Dew Point: 61°F , 16°C
Humidity: 78%
Barometer: 29.93 inHg , 1013.5 hPa
2021/07/24 09:55 KP58 240955Z AUTO 16007KT 20/16 A2993 RMK AO1 SLP129 T02000161
KCFS - Caro/Tuscola, Michigan, USA
Distance from station: S 31mi, 50km
Updated: Sat, 24-Jul-2021 6:35am EDT
Clear
Clear
 Wind from SSE
Wind: SSE 6 mph , 9 km/h
Temperature: 68°F , 20°C
Dew Point: 61°F , 16°C
Humidity: 78%
Barometer: 29.94 inHg , 1013.9 hPa
Clouds: Clear
Visibility: 10 miles , 16 km
2021/07/24 10:35 KCFS 241035Z AUTO 16005KT 10SM CLR 20/16 A2994 RMK AO2 T02010162
 
KPHN - Port Huron, Michigan, USA
Distance from station: SSE 81mi, 131km
Updated: Sat, 24-Jul-2021 6:35am EDT
Partly cloudy
Partly cloudy
 Wind from SSE
Wind: SSE 3 mph , 6 km/h
Temperature: 66°F , 19°C
Dew Point: 63°F , 17°C
Humidity: 88%
Barometer: 29.99 inHg , 1015.6 hPa
Clouds: Partly cloudy
Visibility: 10 miles , 16 km
Cloud details: Partly cloudy 2300 ft
2021/07/24 10:35 KPHN 241035Z AUTO 15003KT 10SM SCT023 19/17 A2999 RMK AO2
KPTK - Pontiac, Michigan, USA
Distance from station: S 86mi, 138km
Updated: Sat, 24-Jul-2021 6:32am EDT
Mist, Overcast
Mist, Overcast
 Wind from S
Wind: S 6 mph , 9 km/h
Temperature: 68°F , 20°C
Dew Point: 66°F , 19°C
Humidity: 94%
Barometer: 29.97 inHg , 1014.9 hPa
Summary: Mist
Clouds: Overcast
Visibility: 4 miles , 6 km
Cloud details: Few Clouds 800 ft
Mostly cloudy 4000 ft
Overcast 8500 ft
2021/07/24 10:32 KPTK 241032Z 17005KT 4SM BR FEW008 BKN040 OVC085 20/19 A2997 RMK AO2 T02000189
KMTC - Selfridge Angb, Michigan, USA
Distance from station: SSE 94mi, 151km
Updated: Sat, 24-Jul-2021 6:26am EDT
Mist, Few clouds
Mist, Few clouds
 Wind from S
Wind: S 8 mph , 13 km/h
Temperature: 70°F , 21°C
Dew Point: 70°F , 21°C
Humidity: 100%
Barometer: 29.98 inHg , 1015.2 hPa
Summary: Mist
Clouds: Few Clouds
Visibility: 2 1/2 miles , 4 km
Cloud details: Few Clouds 2200 ft
2021/07/24 10:26 KMTC 241026Z AUTO 17007KT 2 1/2SM BR FEW022 21/21 A2998 RMK AO2 VIS 2 1/2V3 SLP154 $